Time;durP1;ratioP1;P1;durP2;ratioP2;P2;SDS_P1;SDS_P2;PMS_P1;PMS_P2;Temp;Humidity;BMP_temperature;BMP_pressure;BME280_temperature;BME280_humidity;BME280_pressure;Samples;Min_cycle;Max_cycle;Signal;HPM_P1;HPM_P2
2021/12/16 00:07:14;;;;;;;39.47;21.80;;;;;;;6.72;65.68;101246.16;4341743;33;31951;-84
2021/12/16 00:34:16;;;;;;;42.10;20.90;;;;;;;6.70;65.74;101237.25;4353003;33;34486;-85
2021/12/16 00:36:46;;;;;;;43.60;21.95;;;;;;;6.68;65.74;101249.31;4353631;33;33379;-84
2021/12/16 00:39:24;;;;;;;35.42;19.58;;;;;;;6.65;65.66;101245.00;4341335;33;32397;-84
2021/12/16 00:41:59;;;;;;;41.67;21.15;;;;;;;6.61;65.59;101249.03;4340962;33;34616;-84
2021/12/16 00:49:43;;;;;;;38.38;20.55;;;;;;;6.71;65.43;101249.03;4336404;33;32112;-85
2021/12/16 00:55:28;;;;;;;40.55;20.45;;;;;;;6.61;65.46;101249.03;4347720;33;34013;-84
2021/12/16 00:57:56;;;;;;;40.70;21.15;;;;;;;6.62;65.19;101250.75;4325024;33;31731;-84
2021/12/16 01:00:28;;;;;;;47.28;22.80;;;;;;;6.71;64.95;101244.44;4346895;33;33703;-84
2021/12/16 01:36:35;;;;;;;40.17;21.52;;;;;;;6.35;66.27;101237.88;4349211;32;34386;-85
2021/12/16 01:50:11;;;;;;;39.72;20.55;;;;;;;6.55;65.96;101222.34;4338344;33;33744;-85
2021/12/16 01:55:29;;;;;;;42.00;20.60;;;;;;;6.46;66.35;101212.34;4337519;33;32942;-85
2021/12/16 01:58:10;;;;;;;39.53;21.80;;;;;;;6.48;66.49;101215.78;4347805;33;34711;-85
2021/12/16 02:00:54;;;;;;;40.95;21.00;;;;;;;6.35;66.82;101218.78;4348321;33;34577;-84
2021/12/16 02:03:37;;;;;;;38.17;20.75;;;;;;;6.48;66.42;101215.78;4335807;33;34940;-84
2021/12/16 02:08:43;;;;;;;37.42;18.75;;;;;;;6.64;66.00;101204.25;4348378;33;34387;-85
2021/12/16 02:33:23;;;;;;;38.78;20.42;;;;;;;6.59;66.51;101202.81;4348650;33;33769;-84
2021/12/16 02:35:47;;;;;;;35.75;19.83;;;;;;;6.59;66.72;101201.94;4338338;33;31588;-85
2021/12/16 02:38:17;;;;;;;38.88;20.15;;;;;;;6.50;67.26;101197.41;4348394;33;34272;-84
2021/12/16 02:40:47;;;;;;;37.10;19.60;;;;;;;6.55;67.37;101206.84;4348476;33;35438;-84
2021/12/16 02:48:33;;;;;;;41.35;21.15;;;;;;;6.75;66.88;101188.56;4348106;33;33040;-84
2021/12/16 02:51:06;;;;;;;42.08;20.88;;;;;;;6.60;67.54;101190.91;4348301;33;34345;-84
2021/12/16 02:53:37;;;;;;;41.92;20.52;;;;;;;6.49;67.97;101192.94;4335786;33;34061;-84
2021/12/16 02:56:05;;;;;;;41.47;21.42;;;;;;;6.69;67.18;101194.62;4335728;33;33131;-84
2021/12/16 02:58:35;;;;;;;42.03;20.60;;;;;;;6.59;67.81;101191.91;4335772;33;33224;-84
2021/12/16 03:01:09;;;;;;;40.85;20.77;;;;;;;6.67;67.69;101193.03;4335857;33;33930;-84
2021/12/16 03:03:38;;;;;;;43.53;21.12;;;;;;;6.84;67.11;101195.87;4348007;33;33887;-84
2021/12/16 03:06:10;;;;;;;41.70;20.65;;;;;;;6.72;67.53;101193.44;4335756;33;32829;-84
2021/12/16 03:08:39;;;;;;;40.53;20.30;;;;;;;6.64;67.72;101175.09;4347870;33;32277;-84
2021/12/16 03:11:35;;;;;;;44.22;20.92;;;;;;;6.46;68.29;101165.97;4347788;33;33669;-84
2021/12/16 03:25:36;;;;;;;45.97;22.63;;;;;;;6.62;68.10;101160.75;4348056;33;33004;-85
2021/12/16 03:31:01;;;;;;;48.70;22.37;;;;;;;6.73;67.63;101166.03;4337093;33;32541;-85
2021/12/16 03:36:36;;;;;;;42.15;22.27;;;;;;;6.50;68.85;101176.41;4337275;33;32249;-85
2021/12/16 03:39:09;;;;;;;45.65;21.92;;;;;;;6.72;68.11;101175.22;4347800;33;33623;-84
2021/12/16 03:41:37;;;;;;;40.58;20.20;;;;;;;6.70;68.21;101181.84;4346619;32;33806;-84
2021/12/16 03:44:13;;;;;;;48.72;23.08;;;;;;;6.61;68.53;101172.66;4335526;33;32949;-84
2021/12/16 03:46:46;;;;;;;;;;;;;;;6.65;68.42;101168.63;4324047;33;33297;-85
2021/12/16 03:49:21;;;;;;;45.12;22.80;;;;;;;6.60;68.64;101173.66;4323575;33;33459;-85
2021/12/16 03:51:56;;;;;;;48.92;23.20;;;;;;;6.65;68.59;101170.50;4335603;33;32296;-85
2021/12/16 03:54:25;;;;;;;43.75;22.40;;;;;;;6.55;69.22;101178.69;4347808;33;35026;-84
2021/12/16 03:56:55;;;;;;;42.22;21.25;;;;;;;6.54;69.01;101174.25;4335523;33;32472;-85
2021/12/16 03:59:25;;;;;;;45.03;22.55;;;;;;;6.56;69.12;101164.06;4335473;33;31959;-85
2021/12/16 04:01:55;;;;;;;43.80;22.48;;;;;;;6.53;69.27;101169.81;4335474;33;32317;-85
2021/12/16 04:04:23;;;;;;;46.85;23.30;;;;;;;6.68;68.76;101167.47;4347869;33;35302;-85
2021/12/16 04:06:52;;;;;;;41.90;22.98;;;;;;;6.62;69.09;101179.84;4347886;33;32643;-85
2021/12/16 04:09:21;;;;;;;41.75;21.95;;;;;;;6.79;68.50;101176.34;4336336;33;31611;-85
2021/12/16 04:12:02;;;;;;;44.85;22.17;;;;;;;6.74;68.57;101183.25;4325208;33;32850;-85
2021/12/16 04:14:31;;;;;;;50.88;23.40;;;;;;;6.80;68.48;101174.47;4337933;33;33227;-83
2021/12/16 04:17:03;;;;;;;41.60;22.25;;;;;;;6.87;68.10;101167.41;4340981;33;32222;-83
2021/12/16 04:19:33;;;;;;;50.63;22.90;;;;;;;6.85;68.23;101169.44;4353079;33;33256;-83
2021/12/16 04:22:05;;;;;;;42.90;21.80;;;;;;;6.69;68.53;101167.34;4339877;33;34317;-83
2021/12/16 04:24:33;;;;;;;46.13;22.45;;;;;;;6.89;67.80;101166.25;4352603;33;34496;-84
2021/12/16 04:27:03;;;;;;;46.05;21.87;;;;;;;7.03;67.43;101166.78;4340642;33;34624;-84
2021/12/16 04:29:31;;;;;;;44.05;22.77;;;;;;;6.83;68.00;101168.72;4339434;33;31891;-84
2021/12/16 04:32:00;;;;;;;43.70;22.33;;;;;;;6.90;67.53;101162.53;4325254;33;32180;-85
2021/12/16 04:34:28;;;;;;;43.78;22.13;;;;;;;6.77;68.10;101172.91;4348470;33;34681;-84
2021/12/16 04:36:59;;;;;;;42.85;21.77;;;;;;;6.73;68.18;101171.47;4335764;33;32270;-84
2021/12/16 04:39:30;;;;;;;43.53;21.67;;;;;;;6.94;67.45;101174.00;4335512;33;33612;-84
2021/12/16 04:41:58;;;;;;;40.70;20.73;;;;;;;6.91;67.72;101174.31;4347839;33;33811;-84
2021/12/16 04:44:27;;;;;;;46.70;23.10;;;;;;;6.93;67.64;101183.19;4335306;33;34195;-84
2021/12/16 04:46:56;;;;;;;45.92;23.05;;;;;;;6.84;67.64;101179.50;4347614;33;34699;-84
2021/12/16 04:49:27;;;;;;;43.03;20.33;;;;;;;6.83;67.52;101169.59;4347265;33;32960;-83
2021/12/16 04:52:00;;;;;;;46.25;22.83;;;;;;;6.90;67.52;101173.44;4347855;33;34421;-82
2021/12/16 04:54:29;;;;;;;44.42;22.80;;;;;;;6.92;68.33;101170.56;4335220;33;32892;-83
2021/12/16 04:56:58;;;;;;;45.50;21.42;;;;;;;6.96;67.91;101173.84;4347205;33;33821;-84
2021/12/16 04:59:28;;;;;;;44.33;22.50;;;;;;;7.01;67.52;101171.53;4347152;33;33324;-84
2021/12/16 05:02:08;;;;;;;47.15;22.83;;;;;;;7.07;67.11;101162.75;4347508;33;34515;-85
2021/12/16 05:04:38;;;;;;;41.90;20.90;;;;;;;7.08;66.84;101164.47;4323609;33;32673;-84
2021/12/16 05:07:06;;;;;;;44.78;23.33;;;;;;;7.15;66.58;101163.69;4335046;33;33336;-84
2021/12/16 05:12:20;;;;;;;49.35;23.42;;;;;;;7.08;66.57;101165.34;4335734;33;33112;-85
2021/12/16 05:14:48;;;;;;;46.00;23.85;;;;;;;7.04;66.65;101155.72;4346949;33;34359;-85
2021/12/16 05:19:56;;;;;;;50.20;24.10;;;;;;;7.00;66.69;101156.19;4335740;33;33109;-86
2021/12/16 05:25:20;;;;;;;40.33;21.85;;;;;;;7.11;66.13;101165.03;4347167;33;34112;-85
2021/12/16 05:27:49;;;;;;;48.53;24.20;;;;;;;6.79;67.50;101162.72;4347068;33;34262;-86
2021/12/16 05:30:17;;;;;;;43.38;21.98;;;;;;;6.95;67.62;101164.81;4334600;33;33083;-86
2021/12/16 05:32:46;;;;;;;39.78;17.87;;;;;;;7.03;67.12;101162.19;4334513;33;32223;-88
2021/12/16 05:35:19;;;;;;;48.30;22.85;;;;;;;7.14;69.32;101169.34;4334687;33;33045;-86
2021/12/16 05:37:47;;;;;;;45.10;23.33;;;;;;;7.07;68.79;101173.66;4334827;33;33875;-86
2021/12/16 05:40:18;;;;;;;41.53;22.50;;;;;;;7.03;68.07;101173.13;4346618;33;32789;-87
2021/12/16 05:42:50;;;;;;;43.28;21.80;;;;;;;7.18;67.20;101177.03;4334532;33;32315;-86
2021/12/16 05:45:21;;;;;;;42.70;21.33;;;;;;;7.08;67.16;101180.84;4346763;33;34352;-86
2021/12/16 05:47:48;;;;;;;45.97;22.50;;;;;;;7.06;67.01;101180.13;4345646;33;34134;-87
2021/12/16 05:50:18;;;;;;;40.28;20.90;;;;;;;7.18;66.38;101187.09;4346870;33;34137;-86
2021/12/16 05:52:46;;;;;;;42.75;21.75;;;;;;;7.21;66.19;101182.19;4334493;33;32030;-87
2021/12/16 05:55:18;;;;;;;43.78;21.60;;;;;;;7.14;66.29;101185.72;4334510;33;33805;-86
2021/12/16 05:57:48;;;;;;;47.28;23.95;;;;;;;7.13;66.18;101186.72;4346563;33;34089;-87
2021/12/16 06:00:23;;;;;;;44.40;22.35;;;;;;;7.09;66.15;101191.62;4334640;33;32835;-88
2021/12/16 06:02:53;;;;;;;48.97;24.90;;;;;;;7.06;66.21;101185.59;4332712;33;33365;-86
2021/12/16 06:05:21;;;;;;;47.92;23.75;;;;;;;7.01;66.43;101190.66;4338660;32;32972;-85
2021/12/16 06:07:50;;;;;;;48.65;22.92;;;;;;;7.05;66.35;101194.81;4363470;32;34077;-87
2021/12/16 06:10:56;;;;;;;48.92;23.58;;;;;;;6.86;67.04;101185.66;4350782;32;31907;-87
2021/12/16 06:13:11;;;;;;;42.58;22.48;;;;;;;6.63;68.35;101195.19;4351649;32;32414;-87
2021/12/16 06:29:29;;;;;;;47.78;22.15;;;;;;;6.82;68.33;101191.56;4351907;32;32527;-87
2021/12/16 06:31:57;;;;;;;45.70;22.87;;;;;;;6.74;68.82;101197.75;4362962;32;33322;-87
2021/12/16 06:34:25;;;;;;;52.15;24.15;;;;;;;6.90;68.16;101184.34;4363114;32;34575;-87
2021/12/16 06:36:55;;;;;;;48.85;23.33;;;;;;;6.68;69.17;101201.06;4351081;32;33064;-87
2021/12/16 06:39:29;;;;;;;46.35;22.27;;;;;;;6.53;69.59;101197.06;4350990;32;32515;-87
2021/12/16 06:41:59;;;;;;;54.67;26.42;;;;;;;6.51;69.71;101199.09;4363612;32;31998;-87
2021/12/16 06:44:36;;;;;;;48.28;24.73;;;;;;;6.63;69.78;101203.37;4362812;32;33173;-87
2021/12/16 06:47:12;;;;;;;49.55;24.73;;;;;;;6.83;69.12;101198.75;4362870;32;34133;-87
2021/12/16 06:49:42;;;;;;;47.00;23.02;;;;;;;6.73;69.24;101206.09;4362062;32;33219;-87
2021/12/16 06:52:15;;;;;;;48.78;23.27;;;;;;;7.07;68.14;101203.69;4350818;32;32692;-87
2021/12/16 06:57:28;;;;;;;47.30;24.12;;;;;;;6.57;69.27;101206.69;4363088;32;35243;-86
2021/12/16 07:03:24;;;;;;;46.72;22.55;;;;;;;6.91;68.37;101212.50;4351676;32;32337;-87
2021/12/16 07:05:33;;;;;;;46.90;21.95;;;;;;;6.98;68.10;101218.25;4357565;32;34514;-88
2021/12/16 07:08:03;;;;;;;62.20;30.50;;;;;;;6.85;68.46;101216.69;4350637;32;33055;-87
2021/12/16 07:10:37;;;;;;;61.42;30.15;;;;;;;6.68;69.23;101211.12;4362948;32;32431;-87
2021/12/16 07:13:16;;;;;;;51.30;24.63;;;;;;;6.83;68.80;101212.38;4363084;32;33549;-87
2021/12/16 07:15:47;;;;;;;49.67;23.33;;;;;;;6.91;68.29;101212.50;4351194;32;33675;-87
2021/12/16 07:18:17;;;;;;;48.53;23.75;;;;;;;6.80;68.77;101213.53;4362699;32;34567;-87
2021/12/16 07:20:49;;;;;;;49.53;24.17;;;;;;;6.89;68.45;101218.12;4362814;32;34160;-87
2021/12/16 07:23:21;;;;;;;41.92;22.17;;;;;;;6.63;69.76;101219.75;4350791;32;33294;-87
2021/12/16 07:25:49;;;;;;;46.60;22.33;;;;;;;6.54;70.50;101215.16;4362395;32;33986;-87
2021/12/16 07:28:19;;;;;;;45.38;22.85;;;;;;;6.77;69.75;101222.03;4362546;32;34318;-86
2021/12/16 07:30:47;;;;;;;46.97;24.50;;;;;;;6.74;70.88;101218.72;4362848;32;33237;-87
2021/12/16 07:33:19;;;;;;;50.22;23.38;;;;;;;6.71;71.67;101222.59;4350989;32;33636;-87
2021/12/16 07:35:47;;;;;;;48.92;23.85;;;;;;;6.58;71.83;101225.62;4362621;32;33200;-87
2021/12/16 07:38:16;;;;;;;50.97;24.35;;;;;;;6.73;71.18;101215.12;4362868;32;34414;-87
2021/12/16 07:40:46;;;;;;;50.90;24.60;;;;;;;6.58;71.30;101213.88;4362423;32;33023;-86
2021/12/16 07:43:26;;;;;;;47.53;23.02;;;;;;;6.38;71.73;101210.31;4362579;32;33307;-87
2021/12/16 07:45:58;;;;;;;52.08;24.15;;;;;;;6.48;71.73;101216.63;4362573;32;32493;-86
2021/12/16 07:48:27;;;;;;;53.00;24.20;;;;;;;6.53;71.27;101214.31;4362427;32;35355;-86
2021/12/16 07:51:00;;;;;;;49.80;23.65;;;;;;;6.31;72.42;101213.78;4350537;32;34471;-86
2021/12/16 07:53:28;;;;;;;51.92;24.92;;;;;;;5.78;74.45;101216.87;4362730;32;32168;-87
2021/12/16 07:55:58;;;;;;;53.67;25.60;;;;;;;5.87;74.23;101218.72;4362490;32;33281;-86
2021/12/16 07:58:27;;;;;;;51.33;25.42;;;;;;;6.02;74.18;101220.06;4362205;32;34409;-85
2021/12/16 08:01:00;;;;;;;48.13;24.30;;;;;;;5.66;75.29;101218.00;4350633;32;33401;-86
2021/12/16 08:03:35;;;;;;;50.80;23.62;;;;;;;5.78;75.17;101227.78;4350150;32;33814;-86
2021/12/16 08:06:15;;;;;;;50.70;24.75;;;;;;;6.04;74.13;101226.25;4349696;32;32158;-86
2021/12/16 08:08:44;;;;;;;53.58;24.08;;;;;;;6.18;73.84;101219.50;4350094;32;34963;-86
2021/12/16 08:11:13;;;;;;;54.33;24.92;;;;;;;6.32;73.21;101218.22;4351116;32;34639;-85
2021/12/16 08:13:43;;;;;;;53.42;24.65;;;;;;;6.69;74.28;101230.06;4353854;32;33502;-85
2021/12/16 08:16:11;;;;;;;51.08;26.45;;;;;;;6.73;72.17;101225.19;4338530;32;32494;-86
2021/12/16 08:18:39;;;;;;;48.90;24.87;;;;;;;6.80;71.81;101231.78;4349987;32;34275;-86
2021/12/16 08:21:09;;;;;;;53.90;26.73;;;;;;;7.04;70.84;101217.66;4349989;32;34706;-86
2021/12/16 08:23:37;;;;;;;44.65;22.85;;;;;;;7.18;70.22;101228.06;4362147;32;33445;-86
2021/12/16 08:26:08;;;;;;;48.15;23.50;;;;;;;6.74;71.36;101225.03;4349388;32;34580;-86
2021/12/16 08:28:36;;;;;;;47.42;23.20;;;;;;;6.71;71.94;101227.19;4337601;32;33226;-86
2021/12/16 08:31:06;;;;;;;50.05;24.35;;;;;;;6.79;71.63;101221.88;4362192;32;34148;-86
2021/12/16 08:33:38;;;;;;;45.92;23.02;;;;;;;6.54;72.78;101228.81;4349896;32;33040;-86
2021/12/16 08:36:07;;;;;;;45.12;23.27;;;;;;;6.62;72.07;101224.34;4349751;32;32300;-86
2021/12/16 08:38:37;;;;;;;46.65;22.02;;;;;;;6.75;71.44;101225.91;4349634;32;33203;-86
2021/12/16 08:41:09;;;;;;;49.78;23.75;;;;;;;6.76;71.98;101214.84;4349883;32;33757;-87
2021/12/16 08:43:44;;;;;;;48.47;25.08;;;;;;;6.55;72.76;101223.19;4350590;32;33432;-86
2021/12/16 08:46:14;;;;;;;59.17;29.70;;;;;;;6.78;72.05;101229.19;4349604;32;32096;-86
2021/12/16 08:48:43;;;;;;;54.50;25.90;;;;;;;6.14;74.69;101218.06;4349780;32;35217;-86
2021/12/16 08:51:13;;;;;;;51.40;25.83;;;;;;;6.78;74.21;101225.59;4337517;32;32345;-85
2021/12/16 08:53:41;;;;;;;52.53;24.42;;;;;;;6.63;74.04;101219.75;4349648;32;33552;-86
2021/12/16 08:56:09;;;;;;;75.87;34.45;;;;;;;6.61;73.75;101216.31;4349655;32;33668;-86
2021/12/16 08:58:37;;;;;;;50.55;26.33;;;;;;;7.11;72.08;101219.63;4349129;32;33851;-87
2021/12/16 09:01:19;;;;;;;52.13;24.87;;;;;;;7.09;71.68;101220.78;4361869;32;34128;-87
2021/12/16 09:03:46;;;;;;;46.70;23.92;;;;;;;6.72;73.06;101223.47;4349468;32;33614;-87
2021/12/16 09:06:15;;;;;;;50.20;25.20;;;;;;;6.73;73.50;101226.06;4349722;32;33795;-86
2021/12/16 09:08:43;;;;;;;54.55;25.73;;;;;;;7.18;72.37;101217.13;4348470;32;34191;-85
2021/12/16 09:11:20;;;;;;;53.80;26.85;;;;;;;6.80;73.76;101215.41;4360616;32;34558;-86
2021/12/16 09:13:52;;;;;;;52.20;24.40;;;;;;;7.04;73.02;101221.22;4349593;32;33250;-86
2021/12/16 09:16:25;;;;;;;48.40;24.83;;;;;;;7.02;72.97;101220.53;4343882;33;33903;-86
2021/12/16 09:18:56;;;;;;;50.30;23.30;;;;;;;6.97;73.12;101208.34;4337734;32;34403;-85
2021/12/16 09:21:28;;;;;;;53.33;25.48;;;;;;;7.46;71.61;101216.16;4354740;32;34098;-86
2021/12/16 09:23:57;;;;;;;49.00;24.67;;;;;;;7.33;72.50;101229.28;4354452;32;33226;-84
2021/12/16 09:26:26;;;;;;;51.25;24.98;;;;;;;7.39;71.84;101214.19;4353170;32;32083;-86
2021/12/16 09:28:57;;;;;;;50.15;24.77;;;;;;;7.30;72.11;101226.87;4340401;32;33106;-87
2021/12/16 09:31:27;;;;;;;53.08;27.83;;;;;;;7.23;72.78;101217.53;4351429;32;33804;-86
2021/12/16 09:33:56;;;;;;;55.22;26.75;;;;;;;7.35;72.70;101219.06;4348319;32;31464;-85
2021/12/16 09:36:26;;;;;;;50.67;24.27;;;;;;;7.43;72.09;101223.78;4350236;32;34381;-85
2021/12/16 09:38:57;;;;;;;60.10;28.60;;;;;;;7.00;73.56;101216.22;4346640;32;32965;-85
2021/12/16 09:41:27;;;;;;;49.03;24.67;;;;;;;6.66;74.59;101222.19;4350396;32;32605;-88
2021/12/16 09:43:58;;;;;;;43.17;21.92;;;;;;;7.15;72.57;101206.53;4355301;32;33456;-84
2021/12/16 09:46:28;;;;;;;60.22;28.90;;;;;;;7.06;73.11;101212.91;4335653;33;31794;-88
2021/12/16 09:48:56;;;;;;;47.28;23.83;;;;;;;7.39;71.79;101209.56;4335896;32;35245;-88
2021/12/16 09:51:28;;;;;;;49.92;24.58;;;;;;;7.08;73.11;101208.16;4328286;32;33517;-88
2021/12/16 09:54:03;;;;;;;55.33;27.85;;;;;;;7.67;71.19;101204.97;4350691;32;34410;-88
2021/12/16 09:56:35;;;;;;;48.35;22.73;;;;;;;7.79;70.31;101202.87;4350801;32;32252;-88
2021/12/16 09:59:05;;;;;;;50.95;23.33;;;;;;;7.80;70.14;101196.41;4348874;32;34322;-86
2021/12/16 10:01:33;;;;;;;47.95;23.25;;;;;;;7.70;70.10;101201.06;4353023;32;33933;-88
2021/12/16 10:04:03;;;;;;;44.58;23.10;;;;;;;7.41;71.60;101199.34;4350859;32;32487;-89
2021/12/16 10:06:35;;;;;;;46.95;22.87;;;;;;;7.41;71.52;101196.63;4350427;32;33680;-89
2021/12/16 10:09:05;;;;;;;47.90;24.17;;;;;;;7.36;71.71;101190.75;4350781;32;34364;-89
2021/12/16 10:11:35;;;;;;;48.45;23.02;;;;;;;7.46;72.12;101186.09;4351002;32;34857;-89
2021/12/16 10:19:31;;;;;;;47.62;23.20;;;;;;;7.66;70.65;101177.81;4352925;32;33631;-88
2021/12/16 10:22:20;;;;;;;45.50;23.92;;;;;;;7.48;70.67;101183.22;4350935;32;34028;-88
2021/12/16 10:24:50;;;;;;;44.22;22.15;;;;;;;7.60;70.88;101169.19;4351259;32;31883;-89
2021/12/16 10:27:22;;;;;;;45.05;21.30;;;;;;;7.51;71.53;101166.53;4351105;32;33706;-89
2021/12/16 10:29:55;;;;;;;45.60;22.35;;;;;;;7.52;70.87;101160.06;4351234;32;35161;-89
2021/12/16 10:32:40;;;;;;;40.72;22.05;;;;;;;7.85;69.84;101153.03;4351141;32;34039;-89
2021/12/16 10:35:13;;;;;;;42.75;23.90;;;;;;;8.37;68.24;101159.53;4351067;32;33010;-89
2021/12/16 10:37:45;;;;;;;40.53;22.17;;;;;;;7.85;69.96;101163.97;4350779;32;33809;-89
2021/12/16 10:40:32;;;;;;;49.20;24.25;;;;;;;7.58;70.51;101156.72;4350927;32;34495;-89
2021/12/16 10:43:06;;;;;;;46.15;23.50;;;;;;;8.05;70.12;101153.75;4363042;32;34124;-88
2021/12/16 10:45:44;;;;;;;48.55;25.73;;;;;;;7.93;69.00;101164.91;4351012;32;33017;-89
2021/12/16 10:48:20;;;;;;;46.33;23.87;;;;;;;7.81;68.90;101165.28;4352173;32;34050;-89
2021/12/16 10:51:03;;;;;;;44.58;25.27;;;;;;;8.19;68.29;101161.41;4363416;32;35381;-89
2021/12/16 10:53:51;;;;;;;43.30;21.25;;;;;;;8.41;67.30;101149.13;4351615;32;32411;-89
2021/12/16 10:56:28;;;;;;;40.90;21.95;;;;;;;8.65;66.39;101142.97;4340377;32;31931;-89
2021/12/16 10:59:11;;;;;;;40.33;20.95;;;;;;;8.46;66.73;101152.22;4364346;32;33772;-88
2021/12/16 11:01:49;;;;;;;37.25;20.10;;;;;;;8.30;67.37;101157.56;4351543;32;34278;-88
2021/12/16 11:04:19;;;;;;;36.83;19.98;;;;;;;7.81;69.14;101159.84;4340164;32;32273;-88
2021/12/16 11:07:05;;;;;;;40.10;20.48;;;;;;;8.31;67.52;101159.28;4365235;32;33669;-89
2021/12/16 11:09:38;;;;;;;41.13;19.85;;;;;;;8.40;66.97;101153.75;4355027;32;33238;-86
2021/12/16 11:12:20;;;;;;;40.40;20.62;;;;;;;8.04;68.17;101152.88;4364416;32;33971;-88
2021/12/16 11:15:04;;;;;;;37.85;20.08;;;;;;;8.44;67.19;101154.28;4365429;32;33383;-89
2021/12/16 11:17:54;;;;;;;47.13;21.12;;;;;;;8.39;67.71;101148.44;4352686;32;32523;-88
2021/12/16 11:20:43;;;;;;;42.90;21.60;;;;;;;8.15;68.29;101149.06;4351684;32;33124;-89
2021/12/16 11:23:18;;;;;;;43.40;20.67;;;;;;;8.20;68.12;101141.25;4364864;32;34237;-87
2021/12/16 11:26:05;;;;;;;39.17;21.73;;;;;;;8.09;68.72;101144.22;4351791;32;33719;-88
2021/12/16 11:28:42;;;;;;;37.67;20.10;;;;;;;7.99;69.08;101141.56;4349642;32;33703;-88
2021/12/16 11:31:17;;;;;;;40.40;20.05;;;;;;;7.99;69.79;101136.09;4356899;32;33293;-88
2021/12/16 11:33:52;;;;;;;39.90;20.67;;;;;;;8.41;68.78;101132.72;4352380;33;34315;-87
2021/12/16 11:36:31;;;;;;;35.25;19.85;;;;;;;8.39;67.93;101129.28;4341906;32;33152;-85
2021/12/16 11:39:45;;;;;;;38.08;19.55;;;;;;;8.71;67.16;101134.09;4353448;33;33425;-82
2021/12/16 11:42:40;;;;;;;35.88;18.90;;;;;;;8.67;66.62;101127.25;4323346;33;34910;-87
2021/12/16 11:45:09;;;;;;;35.97;19.60;;;;;;;7.91;69.25;101133.28;4289231;33;34598;-88
2021/12/16 11:47:46;;;;;;;33.88;18.48;;;;;;;8.41;68.17;101135.47;4313618;33;33550;-86
2021/12/16 11:50:17;;;;;;;47.53;20.30;;;;;;;8.39;67.49;101129.28;4314435;32;208880;-85
2021/12/16 11:52:58;;;;;;;35.53;19.27;;;;;;;8.13;68.91;101129.22;4348564;33;32384;-87
2021/12/16 11:55:43;;;;;;;31.92;18.42;;;;;;;7.94;69.58;101124.78;4344142;32;32847;-88
2021/12/16 11:58:12;;;;;;;37.60;19.02;;;;;;;8.06;69.15;101118.06;4350321;32;33045;-86
2021/12/16 12:00:40;;;;;;;32.33;18.45;;;;;;;8.23;68.44;101122.63;4353355;32;32742;-85
2021/12/16 12:03:14;;;;;;;33.95;18.30;;;;;;;8.08;69.10;101116.00;4354240;32;33089;-86
2021/12/16 12:05:48;;;;;;;33.90;19.27;;;;;;;8.40;67.81;101114.59;4351898;32;34144;-86
2021/12/16 12:08:23;;;;;;;40.08;22.30;;;;;;;8.46;67.60;101124.87;4353788;32;34620;-87
2021/12/16 12:11:04;;;;;;;53.75;28.45;;;;;;;8.38;67.93;101124.84;4352538;32;32182;-87
2021/12/16 12:13:47;;;;;;;38.67;21.98;;;;;;;8.30;68.25;101120.12;4351095;32;33592;-85
2021/12/16 12:16:19;;;;;;;43.35;22.80;;;;;;;8.56;67.85;101115.53;4362739;32;34496;-87
2021/12/16 12:19:11;;;;;;;41.35;23.08;;;;;;;8.49;67.92;101117.19;4348949;32;34980;-87
2021/12/16 12:21:56;;;;;;;34.72;19.55;;;;;;;8.42;68.29;101126.25;4347214;32;33409;-87
2021/12/16 12:24:32;;;;;;;32.95;18.70;;;;;;;8.46;67.85;101116.66;4323230;33;32232;-87
2021/12/16 12:27:01;;;;;;;30.25;18.05;;;;;;;8.82;66.81;101114.66;4322837;33;32955;-88
2021/12/16 12:29:35;;;;;;;31.87;18.00;;;;;;;8.24;68.30;101121.63;4359336;32;34843;-87
2021/12/16 12:32:10;;;;;;;42.05;23.77;;;;;;;8.61;68.50;101109.59;4353582;32;34111;-88
2021/12/16 12:34:43;;;;;;;38.90;25.05;;;;;;;8.62;68.68;101103.09;4347224;32;32360;-88
2021/12/16 12:37:17;;;;;;;39.15;24.20;;;;;;;8.93;66.95;101103.44;4336540;33;32615;-88
2021/12/16 12:39:53;;;;;;;31.02;18.65;;;;;;;9.04;66.34;101105.88;4335123;32;32525;-87
2021/12/16 12:42:21;;;;;;;31.58;19.20;;;;;;;8.42;67.55;101109.81;4322446;33;31848;-88
2021/12/16 12:44:52;;;;;;;34.85;19.85;;;;;;;8.33;68.29;101108.03;4335135;33;33579;-87
2021/12/16 12:47:28;;;;;;;30.55;16.42;;;;;;;8.56;67.38;101098.25;4335142;33;33598;-87
2021/12/16 12:50:30;;;;;;;28.50;17.58;;;;;;;8.78;66.78;101102.34;4335014;33;34184;-87
2021/12/16 12:53:14;;;;;;;71.60;37.75;;;;;;;8.50;67.75;101104.37;4336403;33;32636;-87
2021/12/16 12:55:44;;;;;;;37.40;21.83;;;;;;;8.77;67.12;101095.13;4322980;33;33050;-87
2021/12/16 12:58:20;;;;;;;35.72;20.70;;;;;;;8.50;67.41;101099.75;4322890;33;33017;-88
2021/12/16 13:01:01;;;;;;;32.88;19.00;;;;;;;8.69;66.99;101100.56;4334843;33;34879;-87
2021/12/16 13:03:36;;;;;;;38.22;19.85;;;;;;;8.69;67.23;101098.69;4347329;33;34046;-87
2021/12/16 13:06:14;;;;;;;33.50;19.00;;;;;;;9.05;65.62;101098.53;4334775;33;32344;-86
2021/12/16 13:08:50;;;;;;;28.30;15.82;;;;;;;8.96;66.17;101102.25;4335576;33;34094;-87
2021/12/16 13:11:30;;;;;;;32.78;18.70;;;;;;;8.98;66.16;101105.69;4334689;33;32524;-86
2021/12/16 13:14:16;;;;;;;29.75;17.30;;;;;;;9.08;65.72;101111.91;4348435;33;33762;-87
2021/12/16 13:17:01;;;;;;;34.63;20.17;;;;;;;8.39;67.96;101113.75;4337836;33;32279;-86
2021/12/16 13:28:21;;;;;;;29.65;17.60;;;;;;;8.45;67.61;101113.06;4349083;32;32294;-87
2021/12/16 13:31:05;;;;;;;32.50;17.65;;;;;;;8.59;67.11;101117.09;4337816;33;34463;-87
2021/12/16 13:33:43;;;;;;;30.75;18.12;;;;;;;8.74;66.76;101123.69;4338376;33;33919;-87
2021/12/16 13:36:18;;;;;;;34.03;18.13;;;;;;;8.40;68.28;101133.75;4325009;33;31916;-87
2021/12/16 13:38:50;;;;;;;32.08;17.15;;;;;;;8.44;68.44;101121.47;4337272;33;34431;-84
2021/12/16 13:41:23;;;;;;;30.30;17.37;;;;;;;8.54;68.97;101124.94;4336520;33;34632;-84
2021/12/16 13:44:03;;;;;;;27.55;16.25;;;;;;;8.48;68.14;101134.63;4336728;33;33894;-84
2021/12/16 13:47:04;;;;;;;29.60;17.02;;;;;;;8.67;66.96;101135.44;4336442;33;32749;-85
2021/12/16 13:59:10;;;;;;;30.83;18.23;;;;;;;8.82;65.98;101151.13;4348977;33;33330;-86
2021/12/16 14:10:20;;;;;;;28.92;16.42;;;;;;;8.36;68.37;101143.28;4349033;32;31961;-85
2021/12/16 14:16:24;;;;;;;26.30;15.85;;;;;;;8.80;67.45;101133.13;4348325;33;34095;-86
2021/12/16 14:31:09;;;;;;;23.73;13.82;;;;;;;8.75;66.60;101135.50;4348174;33;33179;-85
2021/12/16 14:47:05;;;;;;;24.50;14.50;;;;;;;9.31;64.26;101142.25;4336196;33;33187;-86
2021/12/16 14:49:47;;;;;;;27.02;16.10;;;;;;;9.06;65.22;101144.06;4337377;33;34479;-86
2021/12/16 14:52:28;;;;;;;25.80;14.98;;;;;;;9.08;65.25;101144.75;4323990;33;32368;-85
2021/12/16 14:55:02;;;;;;;23.12;15.10;;;;;;;9.11;65.31;101142.53;4336305;33;33354;-86
2021/12/16 14:57:43;;;;;;;21.98;13.10;;;;;;;9.12;65.15;101154.34;4337289;33;34455;-85
2021/12/16 15:00:37;;;;;;;24.98;13.35;;;;;;;8.68;66.74;101145.37;4338092;33;35624;-86
2021/12/16 15:03:12;;;;;;;22.50;13.68;;;;;;;8.71;66.70;101151.38;4348834;32;34207;-84
2021/12/16 15:06:03;;;;;;;22.52;14.40;;;;;;;8.84;66.46;101150.97;4335540;33;34187;-86
2021/12/16 15:08:49;;;;;;;25.12;14.63;;;;;;;8.49;67.85;101143.69;4338394;33;33146;-86
2021/12/16 15:11:28;;;;;;;22.00;13.15;;;;;;;8.78;66.85;101144.25;4352743;33;34316;-87
2021/12/16 15:13:57;;;;;;;30.27;15.32;;;;;;;8.94;65.80;101143.50;4349680;33;34850;-87
2021/12/16 15:44:31;;;;;;;24.90;14.87;;;;;;;8.85;66.53;101148.06;4352089;32;33054;-87
2021/12/16 15:47:01;;;;;;;23.48;13.02;;;;;;;8.36;68.06;101152.34;4350127;32;33531;-87
2021/12/16 15:49:37;;;;;;;25.10;13.73;;;;;;;8.86;66.33;101148.91;4338913;32;31579;-87
2021/12/16 15:52:08;;;;;;;23.12;14.18;;;;;;;9.20;65.33;101148.91;4350871;32;34665;-87
2021/12/16 15:54:38;;;;;;;23.02;14.20;;;;;;;9.34;64.55;101153.75;4353539;32;34235;-88
2021/12/16 15:57:06;;;;;;;24.50;13.65;;;;;;;9.24;64.58;101159.37;4349820;32;34065;-87